createdAt,value
2023-03-05T00:01:29.918Z,97846.18
2023-03-05T00:04:33.305Z,97849.92
2023-03-05T00:07:36.557Z,97853.46
2023-03-05T00:10:39.765Z,97855.23
2023-03-05T00:13:43.067Z,97852.26
2023-03-05T00:16:46.314Z,97850.55
2023-03-05T00:19:49.563Z,97846.66
2023-03-05T00:22:52.861Z,97839.98
2023-03-05T00:25:56.184Z,97840.84
2023-03-05T00:28:59.555Z,97843.23
2023-03-05T00:32:03.041Z,97836.92
2023-03-05T00:35:06.796Z,97834.22
2023-03-05T00:38:11.469Z,97830.55
2023-03-05T00:41:15.058Z,97832.54
2023-03-05T00:44:19.024Z,97831.10
2023-03-05T00:47:22.296Z,97829.13
2023-03-05T00:50:26.662Z,97825.61
2023-03-05T00:53:30.635Z,97821.86
2023-03-05T00:56:34.026Z,97815.88
2023-03-05T00:59:37.353Z,97812.32
2023-03-05T01:02:40.857Z,97809.27
2023-03-05T01:05:44.602Z,97804.36
2023-03-05T01:08:48.180Z,97803.69
2023-03-05T01:11:54.733Z,97797.79
2023-03-05T01:14:57.949Z,97796.29
2023-03-05T01:18:01.167Z,97789.86
2023-03-05T01:21:04.936Z,97785.05
2023-03-05T01:24:08.501Z,97784.86
2023-03-05T01:27:11.809Z,97781.58
2023-03-05T01:30:15.890Z,97779.52
2023-03-05T01:33:19.197Z,97777.83
2023-03-05T01:36:25.153Z,97773.16
2023-03-05T01:39:28.596Z,97774.00
2023-03-05T01:42:32.040Z,97780.48
2023-03-05T01:45:35.542Z,97780.45
2023-03-05T01:48:44.326Z,97779.55
2023-03-05T01:51:55.136Z,97778.91
2023-03-05T01:55:05.170Z,97779.98
2023-03-05T01:58:13.395Z,97775.78
2023-03-05T02:01:17.192Z,97775.14
2023-03-05T02:04:24.531Z,97766.38
2023-03-05T02:07:28.019Z,97767.11
2023-03-05T02:10:35.879Z,97766.88
2023-03-05T02:13:40.813Z,97763.52
2023-03-05T02:16:44.307Z,97759.81
2023-03-05T02:19:50.142Z,97753.60
2023-03-05T02:22:53.814Z,97750.27
2023-03-05T02:25:57.074Z,97748.00
2023-03-05T02:29:03.264Z,97748.84
2023-03-05T02:32:07.043Z,97749.95
2023-03-05T02:35:10.507Z,97747.58
2023-03-05T02:38:17.032Z,97746.29
2023-03-05T02:41:20.472Z,97748.39
2023-03-05T02:44:24.312Z,97745.02
2023-03-05T02:47:28.160Z,97745.86
2023-03-05T02:50:33.121Z,97742.70
2023-03-05T02:53:36.672Z,97735.95
2023-03-05T02:56:40.418Z,97734.41
2023-03-05T02:59:43.873Z,97736.52
2023-03-05T03:02:47.332Z,97735.13
2023-03-05T03:05:50.686Z,97731.91
2023-03-05T03:08:53.968Z,97734.09
2023-03-05T03:11:57.236Z,97739.15
2023-03-05T03:15:01.567Z,97731.34
2023-03-05T03:18:04.924Z,97736.50
2023-03-05T03:21:08.669Z,97735.52
2023-03-05T03:24:11.955Z,97735.67
2023-03-05T03:27:15.228Z,97729.89
2023-03-05T03:30:19.116Z,97733.67
2023-03-05T03:33:22.465Z,97737.67
2023-03-05T03:36:25.812Z,97732.40
2023-03-05T03:39:29.331Z,97722.35
2023-03-05T03:42:33.038Z,97718.08
2023-03-05T03:45:41.019Z,97715.95
2023-03-05T03:48:44.344Z,97706.20
2023-03-05T03:51:48.979Z,97708.16
2023-03-05T03:54:53.158Z,97709.26
2023-03-05T03:57:56.436Z,97703.96
2023-03-05T04:00:59.810Z,97701.73
2023-03-05T04:04:04.141Z,97698.55
2023-03-05T04:07:07.596Z,97693.77
2023-03-05T04:10:12.172Z,97687.67
2023-03-05T04:13:15.390Z,97676.90
2023-03-05T04:16:19.528Z,97678.31
2023-03-05T04:19:22.970Z,97678.69
2023-03-05T04:22:26.392Z,97678.69
2023-03-05T04:25:29.670Z,97672.97
2023-03-05T04:28:33.598Z,97673.80
2023-03-05T04:31:37.007Z,97667.30
2023-03-05T04:34:40.452Z,97671.55
2023-03-05T04:37:43.714Z,97674.88
2023-03-05T04:40:47.546Z,97683.73
2023-03-05T04:43:50.803Z,97687.70
2023-03-05T04:46:54.067Z,97686.26
2023-03-05T04:49:57.368Z,97670.98
2023-03-05T04:53:01.091Z,97676.30
2023-03-05T04:56:04.719Z,97684.85
2023-03-05T04:59:08.013Z,97686.21
2023-03-05T05:02:11.628Z,97685.33
2023-03-05T05:05:19.157Z,97684.82
2023-03-05T05:08:22.855Z,97677.88
2023-03-05T05:11:26.152Z,97671.29
2023-03-05T05:14:29.399Z,97670.64
2023-03-05T05:17:33.181Z,97671.58
2023-03-05T05:20:36.505Z,97664.45
2023-03-05T05:23:40.377Z,97665.54
2023-03-05T05:26:43.884Z,97654.96
2023-03-05T05:29:50.337Z,97651.71
2023-03-05T05:32:53.750Z,97654.36
2023-03-05T05:35:58.013Z,97655.59
2023-03-05T05:39:01.427Z,97655.62
2023-03-05T05:42:04.887Z,97657.92
2023-03-05T05:45:09.465Z,97661.02
2023-03-05T05:48:12.817Z,97662.56
2023-03-05T05:51:22.377Z,97658.93
2023-03-05T05:54:25.776Z,97656.70
2023-03-05T05:57:29.113Z,97655.81
2023-03-05T06:00:32.489Z,97656.35
2023-03-05T06:03:35.719Z,97655.14
2023-03-05T06:06:39.027Z,97653.64
2023-03-05T06:09:42.299Z,97652.26
2023-03-05T06:12:45.589Z,97652.62
2023-03-05T06:15:59.670Z,97650.48
2023-03-05T06:19:04.759Z,97646.98
2023-03-05T06:22:08.916Z,97647.64
2023-03-05T06:25:12.590Z,97649.31
2023-03-05T06:28:15.922Z,97640.36
2023-03-05T06:31:22.299Z,97636.08
2023-03-05T06:34:25.601Z,97631.35
2023-03-05T06:37:28.892Z,97628.73
2023-03-05T06:40:32.303Z,97625.38
2023-03-05T06:43:38.638Z,97623.11
2023-03-05T06:46:42.020Z,97619.49
2023-03-05T06:49:45.374Z,97610.05
2023-03-05T06:52:51.396Z,97611.88
2023-03-05T06:55:54.775Z,97606.66
2023-03-05T06:58:58.267Z,97610.36
2023-03-05T07:02:01.572Z,97610.42
2023-03-05T07:05:06.388Z,97606.60
2023-03-05T07:08:10.581Z,97604.30
2023-03-05T07:11:16.834Z,97608.18
2023-03-05T07:14:20.182Z,97606.56
2023-03-05T07:17:23.416Z,97604.59
2023-03-05T07:20:26.866Z,97594.25
2023-03-05T07:23:30.213Z,97591.49
2023-03-05T07:26:33.931Z,97591.67
2023-03-05T07:29:37.219Z,97596.92
2023-03-05T07:32:40.813Z,97601.48
2023-03-05T07:35:44.165Z,97597.67
2023-03-05T07:38:47.610Z,97592.44
2023-03-05T07:41:51.794Z,97592.80
2023-03-05T07:45:02.910Z,97591.86
2023-03-05T07:48:06.357Z,97588.12
2023-03-05T07:51:18.358Z,97585.08
2023-03-05T07:54:21.553Z,97580.65
2023-03-05T07:57:24.785Z,97581.81
2023-03-05T08:00:27.952Z,97576.95
2023-03-05T08:03:31.160Z,97575.89
2023-03-05T08:06:34.389Z,97572.23
2023-03-05T08:09:37.603Z,97577.04
2023-03-05T08:12:40.861Z,97572.61
2023-03-05T08:15:44.165Z,97571.56
2023-03-05T08:18:48.240Z,97570.80
2023-03-05T08:21:51.419Z,97565.97
2023-03-05T08:24:54.622Z,97567.02
2023-03-05T08:27:57.817Z,97561.98
2023-03-05T08:31:01.091Z,97562.13
2023-03-05T08:34:04.952Z,97556.23
2023-03-05T08:37:09.314Z,97551.70
2023-03-05T08:40:12.912Z,97547.55
2023-03-05T08:43:17.733Z,97542.70
2023-03-05T08:46:21.057Z,97541.23
2023-03-05T08:49:24.392Z,97541.25
2023-03-05T08:52:27.769Z,97540.58
2023-03-05T08:55:31.063Z,97533.91
2023-03-05T08:58:34.357Z,97532.56
2023-03-05T09:01:37.709Z,97531.53
2023-03-05T09:04:41.321Z,97528.16
2023-03-05T09:07:44.820Z,97527.48
2023-03-05T09:10:48.129Z,97530.89
2023-03-05T09:13:51.486Z,97531.74
2023-03-05T09:16:55.911Z,97534.37
2023-03-05T09:19:59.150Z,97530.86
2023-03-05T09:23:02.561Z,97535.25
2023-03-05T09:26:08.028Z,97525.38
2023-03-05T09:29:12.648Z,97537.57
2023-03-05T09:32:16.333Z,97539.60
2023-03-05T09:35:19.730Z,97536.62
2023-03-05T09:38:23.027Z,97540.67
2023-03-05T09:41:30.342Z,97544.76
2023-03-05T09:44:50.766Z,97545.13
2023-03-05T09:48:09.612Z,97547.69
2023-03-05T09:51:21.320Z,97550.98
2023-03-05T09:54:37.358Z,97546.84
2023-03-05T09:57:49.026Z,97549.98
2023-03-05T10:01:00.799Z,97546.01
2023-03-05T10:04:17.300Z,97543.73
2023-03-05T10:07:27.521Z,97535.02
2023-03-05T10:10:43.180Z,97532.29
2023-03-05T10:13:46.566Z,97532.02
2023-03-05T10:17:11.254Z,97526.75
2023-03-05T10:20:42.432Z,97523.20
2023-03-05T10:24:00.727Z,97515.44
2023-03-05T10:27:28.236Z,97512.40
2023-03-05T10:30:50.261Z,97508.14
2023-03-05T10:34:12.403Z,97502.58
2023-03-05T10:37:30.828Z,97499.81
2023-03-05T10:40:45.498Z,97494.64
2023-03-05T10:44:05.148Z,97495.36
2023-03-05T10:47:26.380Z,97491.42
2023-03-05T10:50:39.170Z,97493.23
2023-03-05T10:53:56.352Z,97489.14
2023-03-05T10:57:04.443Z,97485.35
2023-03-05T11:00:17.170Z,97487.08
2023-03-05T11:03:20.423Z,97480.95
2023-03-05T11:06:41.199Z,97480.89
2023-03-05T11:10:04.486Z,97476.50
2023-03-05T11:13:26.401Z,97474.86
2023-03-05T11:16:47.867Z,97473.44
2023-03-05T11:19:52.104Z,97463.08
2023-03-05T11:23:14.980Z,97460.90
2023-03-05T11:26:18.202Z,97455.05
2023-03-05T11:29:45.845Z,97455.80
2023-03-05T11:32:49.603Z,97451.39
2023-03-05T11:36:12.709Z,97448.00
2023-03-05T11:39:19.465Z,97441.63
2023-03-05T11:42:25.399Z,97438.34
2023-03-05T11:45:32.146Z,97436.05
2023-03-05T11:48:38.220Z,97436.34
2023-03-05T11:52:12.636Z,97438.39
2023-03-05T11:55:22.342Z,97433.53
2023-03-05T11:58:39.223Z,97432.35
2023-03-05T12:01:52.620Z,97426.68
2023-03-05T12:04:56.513Z,97422.31
2023-03-05T12:08:02.615Z,97424.33
2023-03-05T12:11:20.450Z,97428.48
2023-03-05T12:14:39.772Z,97424.46
2023-03-05T12:17:57.832Z,97417.73
2023-03-05T12:21:26.757Z,97416.08
2023-03-05T12:24:30.009Z,97409.43
2023-03-05T12:27:35.933Z,97397.69
2023-03-05T12:30:42.358Z,97392.70
2023-03-05T12:33:45.681Z,97398.05
2023-03-05T12:36:48.907Z,97400.12
2023-03-05T12:40:00.923Z,97399.77
2023-03-05T12:43:05.904Z,97401.83
2023-03-05T12:46:24.846Z,97402.45
2023-03-05T12:49:29.148Z,97401.35
2023-03-05T12:52:34.248Z,97402.98
2023-03-05T12:55:49.701Z,97403.52
2023-03-05T12:58:55.984Z,97398.90
2023-03-05T13:02:03.530Z,97394.30
2023-03-05T13:05:37.322Z,97392.21
2023-03-05T13:08:40.500Z,97393.62
2023-03-05T13:11:49.147Z,97398.55
2023-03-05T13:15:05.093Z,97396.52
2023-03-05T13:18:20.262Z,97397.23
2023-03-05T13:21:29.843Z,97405.96
2023-03-05T13:24:33.137Z,97418.23
2023-03-05T13:27:36.373Z,97414.45
2023-03-05T13:30:40.018Z,97402.70
2023-03-05T13:33:54.290Z,97395.02
2023-03-05T13:37:37.521Z,97395.17
2023-03-05T13:40:41.629Z,97393.45
2023-03-05T13:43:50.675Z,97386.75
2023-03-05T13:46:53.842Z,97383.94
2023-03-05T13:50:04.873Z,97381.48
2023-03-05T13:53:19.450Z,97378.09
2023-03-05T13:56:22.765Z,97377.99
2023-03-05T13:59:30.772Z,97376.94
2023-03-05T14:02:34.079Z,97377.69
2023-03-05T14:05:37.613Z,97380.85
2023-03-05T14:08:41.468Z,97374.80
2023-03-05T14:11:56.229Z,97370.64
2023-03-05T14:15:02.443Z,97362.60
2023-03-05T14:18:15.802Z,97357.73
2023-03-05T14:21:18.980Z,97357.48
2023-03-05T14:24:26.941Z,97355.52
2023-03-05T14:27:39.509Z,97353.15
2023-03-05T14:30:52.505Z,97350.17
2023-03-05T14:34:02.177Z,97339.66
2023-03-05T14:37:29.392Z,97341.69
2023-03-05T14:40:35.328Z,97334.14
2023-03-05T14:43:38.512Z,97335.08
2023-03-05T14:46:42.854Z,97333.07
2023-03-05T14:49:46.280Z,97337.55
2023-03-05T14:52:52.259Z,97331.83
2023-03-05T14:55:56.932Z,97324.54
2023-03-05T14:59:00.193Z,97319.13
2023-03-05T15:02:03.542Z,97315.03
2023-03-05T15:08:23.758Z,97307.15
2023-03-05T15:11:27.340Z,97306.34
2023-03-05T15:14:30.921Z,97301.48
2023-03-05T15:17:39.910Z,97301.38
2023-03-05T15:20:48.991Z,97294.78
2023-03-05T15:23:52.156Z,97296.59
2023-03-05T15:26:55.328Z,97298.30
2023-03-05T15:30:01.338Z,97297.54
2023-03-05T15:33:07.980Z,97295.10
2023-03-05T15:36:11.269Z,97294.66
2023-03-05T15:39:15.094Z,97293.69
2023-03-05T15:42:19.112Z,97290.61
2023-03-05T15:45:22.508Z,97294.69
2023-03-05T15:48:25.840Z,97296.59
2023-03-05T15:51:29.118Z,97296.80
2023-03-05T15:54:32.380Z,97303.06
2023-03-05T15:57:38.234Z,97307.18
2023-03-05T16:00:42.120Z,97310.95
2023-03-05T16:03:46.198Z,97316.52
2023-03-05T16:06:50.614Z,97319.11
2023-03-05T16:09:55.290Z,97323.05
2023-03-05T16:13:07.448Z,97322.88
2023-03-05T16:16:11.169Z,97328.14
2023-03-05T16:19:17.866Z,97337.46
2023-03-05T16:22:21.296Z,97346.33
2023-03-05T16:25:26.816Z,97355.27
2023-03-05T16:28:30.284Z,97364.70
2023-03-05T16:31:35.204Z,97360.72
2023-03-05T16:34:44.849Z,97361.38
2023-03-05T16:37:48.185Z,97364.02
2023-03-05T16:41:07.242Z,97364.05
2023-03-05T16:44:12.035Z,97369.25
2023-03-05T16:47:15.704Z,97368.17
2023-03-05T16:50:18.936Z,97369.80
2023-03-05T16:53:22.289Z,97365.39
2023-03-05T16:56:32.778Z,97365.17
2023-03-05T16:59:37.498Z,97369.14
2023-03-05T17:02:40.960Z,97364.89
2023-03-05T17:05:45.591Z,97364.52
2023-03-05T17:08:49.502Z,97363.09
2023-03-05T17:11:54.508Z,97363.66
2023-03-05T17:15:00.678Z,97366.69
2023-03-05T17:18:04.235Z,97370.19
2023-03-05T17:21:08.676Z,97372.36
2023-03-05T17:24:12.137Z,97367.63
2023-03-05T17:27:18.824Z,97372.70
2023-03-05T17:30:22.198Z,97364.39
2023-03-05T17:33:25.439Z,97358.73
2023-03-05T17:36:28.938Z,97363.34
2023-03-05T17:39:32.689Z,97360.39
2023-03-05T17:42:36.006Z,97363.67
2023-03-05T17:45:39.360Z,97365.88
2023-03-05T17:48:43.007Z,97359.30
2023-03-05T17:51:46.755Z,97354.73
2023-03-05T17:54:53.031Z,97352.02
2023-03-05T17:57:56.726Z,97349.29
2023-03-05T18:01:00.469Z,97349.69
2023-03-05T18:04:03.719Z,97343.52
2023-03-05T18:07:07.459Z,97346.64
2023-03-05T18:10:12.408Z,97347.88
2023-03-05T18:13:15.950Z,97351.00
2023-03-05T18:16:19.269Z,97346.88
2023-03-05T18:19:26.588Z,97349.27
2023-03-05T18:22:33.355Z,97352.45
2023-03-05T18:25:36.689Z,97350.45
2023-03-05T18:28:40.210Z,97351.61
2023-03-05T18:31:43.477Z,97347.45
2023-03-05T18:34:48.931Z,97351.19
2023-03-05T18:37:53.496Z,97350.34
2023-03-05T18:40:57.700Z,97350.59
2023-03-05T18:44:01.865Z,97354.02
2023-03-05T18:47:05.118Z,97353.16
2023-03-05T18:50:18.511Z,97355.48
2023-03-05T18:53:22.722Z,97358.11
2023-03-05T18:56:26.022Z,97355.21
2023-03-05T18:59:29.686Z,97353.50
2023-03-05T19:02:34.500Z,97355.70
2023-03-05T19:05:38.654Z,97355.04
2023-03-05T19:08:42.318Z,97354.53
2023-03-05T19:11:47.967Z,97349.07
2023-03-05T19:14:51.214Z,97346.29
2023-03-05T19:17:54.924Z,97344.25
2023-03-05T19:20:58.097Z,97344.73
2023-03-05T19:24:01.376Z,97348.50
2023-03-05T19:27:11.125Z,97344.08
2023-03-05T19:30:16.335Z,97342.71
2023-03-05T19:33:19.572Z,97338.02
2023-03-05T19:36:23.201Z,97336.60
2023-03-05T19:39:27.337Z,97335.17
2023-03-05T19:42:30.904Z,97337.87
2023-03-05T19:45:34.916Z,97342.97
2023-03-05T19:48:38.370Z,97345.11
2023-03-05T19:51:44.214Z,97343.08
2023-03-05T19:54:47.780Z,97344.13
2023-03-05T19:57:51.111Z,97344.18
2023-03-05T20:00:54.481Z,97345.32
2023-03-05T20:04:00.268Z,97344.09
2023-03-05T20:07:05.385Z,97345.88
2023-03-05T20:10:09.185Z,97346.02
2023-03-05T20:13:12.399Z,97347.11
2023-03-05T20:16:21.814Z,97349.84
2023-03-05T20:19:25.031Z,97340.29
2023-03-05T20:22:28.357Z,97340.81
2023-03-05T20:25:31.981Z,97335.98
2023-03-05T20:28:35.494Z,97331.00
2023-03-05T20:31:39.673Z,97326.75
2023-03-05T20:34:42.961Z,97328.30
2023-03-05T20:38:12.823Z,97322.43
2023-03-05T20:41:20.821Z,97316.68
2023-03-05T20:44:24.214Z,97312.04
2023-03-05T20:47:46.104Z,97310.00
2023-03-05T20:50:50.372Z,97308.20
2023-03-05T20:53:58.250Z,97299.71
2023-03-05T20:57:01.653Z,97296.61
2023-03-05T21:00:06.488Z,97291.86
2023-03-05T21:03:10.300Z,97288.52
2023-03-05T21:06:13.662Z,97289.69
2023-03-05T21:09:16.988Z,97290.84
2023-03-05T21:12:20.293Z,97287.73
2023-03-05T21:15:26.468Z,97288.14
2023-03-05T21:18:29.782Z,97284.17
2023-03-05T21:21:33.121Z,97283.72
2023-03-05T21:24:52.384Z,97283.34
2023-03-05T21:28:01.475Z,97279.60
2023-03-05T21:31:10.641Z,97273.02
2023-03-05T21:34:14.697Z,97273.39
2023-03-05T21:37:18.131Z,97269.51
2023-03-05T21:40:22.464Z,97264.04
2023-03-05T21:43:27.129Z,97265.49
2023-03-05T21:46:31.241Z,97260.67
2023-03-05T21:49:34.711Z,97257.34
2023-03-05T21:52:38.449Z,97252.70
2023-03-05T21:55:54.288Z,97250.23
2023-03-05T21:58:57.878Z,97248.63
2023-03-05T22:02:01.372Z,97246.50
2023-03-05T22:05:06.754Z,97247.38
2023-03-05T22:08:10.157Z,97249.56
2023-03-05T22:11:15.633Z,97246.89
2023-03-05T22:14:19.007Z,97248.80
2023-03-05T22:17:22.433Z,97244.73
2023-03-05T22:20:26.274Z,97242.95
2023-03-05T22:23:34.123Z,97238.94
2023-03-05T22:26:39.915Z,97238.69
2023-03-05T22:29:43.253Z,97242.67
2023-03-05T22:32:46.586Z,97242.34
2023-03-05T22:35:50.430Z,97239.23
2023-03-05T22:38:53.885Z,97241.02
2023-03-05T22:41:57.484Z,97245.27
2023-03-05T22:45:00.767Z,97243.34
2023-03-05T22:48:04.447Z,97241.65
2023-03-05T22:51:08.974Z,97238.02
2023-03-05T22:54:12.481Z,97236.04
2023-03-05T22:57:15.878Z,97228.38
2023-03-05T23:00:23.683Z,97234.89
2023-03-05T23:03:27.426Z,97243.23
2023-03-05T23:06:30.746Z,97246.54
2023-03-05T23:09:34.053Z,97245.48
2023-03-05T23:12:41.348Z,97241.80
2023-03-05T23:15:44.597Z,97240.43
2023-03-05T23:18:47.987Z,97240.62
2023-03-05T23:21:51.345Z,97245.55
2023-03-05T23:24:54.640Z,97247.37
2023-03-05T23:27:59.084Z,97239.47
2023-03-05T23:31:03.186Z,97244.36
2023-03-05T23:34:06.619Z,97240.41
2023-03-05T23:37:09.975Z,97239.34
2023-03-05T23:40:17.258Z,97238.66
2023-03-05T23:43:22.722Z,97233.95
2023-03-05T23:46:26.136Z,97227.13
2023-03-05T23:49:29.444Z,97220.95
2023-03-05T23:52:33.341Z,97212.98
2023-03-05T23:55:42.124Z,97214.11
2023-03-05T23:58:45.457Z,97225.63
